Pagrindinis puslapis
METAR-TAF:

METAR-TAF

Oro uostai :

Chevak, Aliaska, Jungtinės Amerikos Valstijos

platuma: 61-32-27N, ilguma: 165-36-03W, Aukštis: 23 m

Dabartinis oras

Ataskaita buvo paskelbta 22 minutes, ne 04:56 UTC
Vėjas 8 kt iš Šiaurės/Šiaurės Vakarų
Temperatūra 12°C
Drėgmė 82%
Slėgis 1006 hPa
Matomumas: 16.1 km
Su prošvaistėmis ne aukštis 2400 ft
Apsiniaukę ne aukštis 11000 ft

METAR: PAVA 160456Z AUTO 33008KT 10SM BKN024 OVC110 12/09 A2972 RMK AO2 SLP147 T01170094 PNO $

Laikas: 21:18 (05:18 UTC)


TAF: trūkstamas

Orai ataskaitas ir orų prognozės (METAR, TAF).

turimą stotys yra geltonos ir raudonos taškus žemėlapyje.

Perkelti pele per norėdami pamatyti stoties vardą.

Tada spustelėkite, norėdami matyti oro stebėjimo ir prognozės.

Norėdami pakeisti žemėlapį: spustelėkite ant žalios mygtukų su juodo kryžiaus žemyn,; žalią mygtuką su brūkšneliu, jei norite nutolinti; arba žalių rodyklių gretimoms žemėlapius.


METAR-TAF: